sensor_id;sensor_type;location;lat;lon;timestamp;temperature;humidity
36280;DHT22;22317;47.936;12.742;2023-05-10T00:00:00;12.20;53.20
36280;DHT22;22317;47.936;12.742;2023-05-10T00:02:26;12.30;53.40
36280;DHT22;22317;47.936;12.742;2023-05-10T00:04:52;12.30;53.60
36280;DHT22;22317;47.936;12.742;2023-05-10T00:07:18;12.30;53.80
36280;DHT22;22317;47.936;12.742;2023-05-10T00:09:44;12.30;54.00
36280;DHT22;22317;47.936;12.742;2023-05-10T00:12:09;12.30;54.10
36280;DHT22;22317;47.936;12.742;2023-05-10T00:14:35;12.40;54.30
36280;DHT22;22317;47.936;12.742;2023-05-10T00:17:01;12.40;54.40
36280;DHT22;22317;47.936;12.742;2023-05-10T00:19:27;12.40;54.60
36280;DHT22;22317;47.936;12.742;2023-05-10T00:21:52;12.50;54.60
36280;DHT22;22317;47.936;12.742;2023-05-10T00:24:18;12.50;54.70
36280;DHT22;22317;47.936;12.742;2023-05-10T00:26:44;12.50;54.90
36280;DHT22;22317;47.936;12.742;2023-05-10T00:29:10;12.50;54.90
36280;DHT22;22317;47.936;12.742;2023-05-10T00:31:36;12.50;55.10
36280;DHT22;22317;47.936;12.742;2023-05-10T00:34:02;12.50;55.10
36280;DHT22;22317;47.936;12.742;2023-05-10T00:36:27;12.50;55.10
36280;DHT22;22317;47.936;12.742;2023-05-10T00:38:53;12.50;55.30
36280;DHT22;22317;47.936;12.742;2023-05-10T00:41:19;12.60;55.50
36280;DHT22;22317;47.936;12.742;2023-05-10T00:43:46;12.60;56.10
36280;DHT22;22317;47.936;12.742;2023-05-10T00:46:14;12.60;55.50
36280;DHT22;22317;47.936;12.742;2023-05-10T00:48:41;12.60;55.70
36280;DHT22;22317;47.936;12.742;2023-05-10T00:51:07;12.60;55.80
36280;DHT22;22317;47.936;12.742;2023-05-10T00:53:34;12.70;56.00
36280;DHT22;22317;47.936;12.742;2023-05-10T00:56:00;12.70;56.00
36280;DHT22;22317;47.936;12.742;2023-05-10T00:58:27;12.70;56.10
36280;DHT22;22317;47.936;12.742;2023-05-10T01:00:55;12.80;56.30
36280;DHT22;22317;47.936;12.742;2023-05-10T01:03:22;12.80;56.20
36280;DHT22;22317;47.936;12.742;2023-05-10T01:05:48;12.80;56.30
36280;DHT22;22317;47.936;12.742;2023-05-10T01:08:14;12.90;56.30
36280;DHT22;22317;47.936;12.742;2023-05-10T01:10:40;12.90;56.30
36280;DHT22;22317;47.936;12.742;2023-05-10T01:13:07;12.90;56.30
36280;DHT22;22317;47.936;12.742;2023-05-10T01:15:33;12.90;56.30
36280;DHT22;22317;47.936;12.742;2023-05-10T01:17:59;12.90;56.40
36280;DHT22;22317;47.936;12.742;2023-05-10T01:20:33;12.90;56.50
36280;DHT22;22317;47.936;12.742;2023-05-10T01:26:42;13.00;56.80
36280;DHT22;22317;47.936;12.742;2023-05-10T01:40:42;12.90;56.60
36280;DHT22;22317;47.936;12.742;2023-05-10T01:43:17;12.90;56.70
36280;DHT22;22317;47.936;12.742;2023-05-10T01:45:53;12.90;56.70
36280;DHT22;22317;47.936;12.742;2023-05-10T01:48:20;12.90;56.90
36280;DHT22;22317;47.936;12.742;2023-05-10T01:50:46;12.90;56.80
36280;DHT22;22317;47.936;12.742;2023-05-10T01:53:18;12.90;56.70
36280;DHT22;22317;47.936;12.742;2023-05-10T01:55:52;12.90;56.80
36280;DHT22;22317;47.936;12.742;2023-05-10T01:58:29;12.80;57.40
36280;DHT22;22317;47.936;12.742;2023-05-10T02:00:57;12.90;56.90
36280;DHT22;22317;47.936;12.742;2023-05-10T02:03:25;12.80;56.90
36280;DHT22;22317;47.936;12.742;2023-05-10T02:05:54;12.80;57.10
36280;DHT22;22317;47.936;12.742;2023-05-10T02:08:22;12.80;57.10
36280;DHT22;22317;47.936;12.742;2023-05-10T02:10:50;12.80;57.20
36280;DHT22;22317;47.936;12.742;2023-05-10T02:13:17;12.80;57.30
36280;DHT22;22317;47.936;12.742;2023-05-10T02:15:44;12.80;57.30
36280;DHT22;22317;47.936;12.742;2023-05-10T02:18:12;12.90;57.40
36280;DHT22;22317;47.936;12.742;2023-05-10T02:20:39;12.80;57.40
36280;DHT22;22317;47.936;12.742;2023-05-10T02:23:05;12.90;57.40
36280;DHT22;22317;47.936;12.742;2023-05-10T02:25:32;12.90;57.50
36280;DHT22;22317;47.936;12.742;2023-05-10T02:28:00;12.90;57.60
36280;DHT22;22317;47.936;12.742;2023-05-10T02:30:28;12.90;57.60
36280;DHT22;22317;47.936;12.742;2023-05-10T02:32:55;12.80;57.60
36280;DHT22;22317;47.936;12.742;2023-05-10T02:35:23;12.80;57.60
36280;DHT22;22317;47.936;12.742;2023-05-10T02:37:50;12.80;57.60
36280;DHT22;22317;47.936;12.742;2023-05-10T02:40:17;12.80;57.60
36280;DHT22;22317;47.936;12.742;2023-05-10T02:42:44;12.80;57.70
36280;DHT22;22317;47.936;12.742;2023-05-10T02:45:19;12.80;57.80
36280;DHT22;22317;47.936;12.742;2023-05-10T02:47:45;12.70;57.90
36280;DHT22;22317;47.936;12.742;2023-05-10T02:50:11;12.70;57.80
36280;DHT22;22317;47.936;12.742;2023-05-10T02:52:44;12.70;57.90
36280;DHT22;22317;47.936;12.742;2023-05-10T02:55:14;12.70;58.00
36280;DHT22;22317;47.936;12.742;2023-05-10T02:57:46;12.60;57.90
36280;DHT22;22317;47.936;12.742;2023-05-10T03:00:13;12.60;58.00
36280;DHT22;22317;47.936;12.742;2023-05-10T03:02:39;12.50;57.90
36280;DHT22;22317;47.936;12.742;2023-05-10T03:05:05;12.50;58.10
36280;DHT22;22317;47.936;12.742;2023-05-10T03:07:32;12.50;58.30
36280;DHT22;22317;47.936;12.742;2023-05-10T03:09:58;12.50;58.40
36280;DHT22;22317;47.936;12.742;2023-05-10T03:17:35;12.50;58.30
36280;DHT22;22317;47.936;12.742;2023-05-10T03:20:10;12.50;58.40
36280;DHT22;22317;47.936;12.742;2023-05-10T03:22:40;12.50;58.40
36280;DHT22;22317;47.936;12.742;2023-05-10T03:25:10;12.50;58.40
36280;DHT22;22317;47.936;12.742;2023-05-10T03:27:40;12.40;58.30
36280;DHT22;22317;47.936;12.742;2023-05-10T03:30:11;12.40;58.30
36280;DHT22;22317;47.936;12.742;2023-05-10T03:32:38;12.40;58.50
36280;DHT22;22317;47.936;12.742;2023-05-10T03:35:11;12.40;58.50
36280;DHT22;22317;47.936;12.742;2023-05-10T03:37:38;12.40;58.50
36280;DHT22;22317;47.936;12.742;2023-05-10T03:40:05;12.40;58.50
36280;DHT22;22317;47.936;12.742;2023-05-10T03:42:33;12.40;58.50
36280;DHT22;22317;47.936;12.742;2023-05-10T03:44:59;12.40;59.10
36280;DHT22;22317;47.936;12.742;2023-05-10T03:47:25;12.40;58.50
36280;DHT22;22317;47.936;12.742;2023-05-10T03:49:51;12.40;58.50
36280;DHT22;22317;47.936;12.742;2023-05-10T03:52:17;12.40;59.00
36280;DHT22;22317;47.936;12.742;2023-05-10T03:54:44;12.40;58.30
36280;DHT22;22317;47.936;12.742;2023-05-10T03:57:09;12.40;58.30
36280;DHT22;22317;47.936;12.742;2023-05-10T03:59:35;12.30;58.20
36280;DHT22;22317;47.936;12.742;2023-05-10T04:02:01;12.30;58.30
36280;DHT22;22317;47.936;12.742;2023-05-10T04:04:26;12.30;58.40
36280;DHT22;22317;47.936;12.742;2023-05-10T04:06:53;12.30;58.50
36280;DHT22;22317;47.936;12.742;2023-05-10T04:09:19;12.30;58.70
36280;DHT22;22317;47.936;12.742;2023-05-10T04:11:44;12.30;58.60
36280;DHT22;22317;47.936;12.742;2023-05-10T04:14:10;12.40;59.70
36280;DHT22;22317;47.936;12.742;2023-05-10T04:16:36;12.40;58.70
36280;DHT22;22317;47.936;12.742;2023-05-10T04:19:01;12.50;58.60
36280;DHT22;22317;47.936;12.742;2023-05-10T04:21:28;12.40;63.80
36280;DHT22;22317;47.936;12.742;2023-05-10T04:23:53;12.50;58.70
36280;DHT22;22317;47.936;12.742;2023-05-10T04:26:19;12.50;59.50
36280;DHT22;22317;47.936;12.742;2023-05-10T04:28:46;12.50;58.80
36280;DHT22;22317;47.936;12.742;2023-05-10T04:31:12;12.40;58.80
36280;DHT22;22317;47.936;12.742;2023-05-10T04:33:38;12.50;59.00
36280;DHT22;22317;47.936;12.742;2023-05-10T04:36:04;12.50;59.00
36280;DHT22;22317;47.936;12.742;2023-05-10T04:38:30;12.50;59.00
36280;DHT22;22317;47.936;12.742;2023-05-10T04:41:09;12.50;58.90
36280;DHT22;22317;47.936;12.742;2023-05-10T04:43:36;12.50;59.10
36280;DHT22;22317;47.936;12.742;2023-05-10T04:46:03;12.50;59.10
36280;DHT22;22317;47.936;12.742;2023-05-10T04:48:29;12.50;59.10
36280;DHT22;22317;47.936;12.742;2023-05-10T04:50:55;12.50;59.00
36280;DHT22;22317;47.936;12.742;2023-05-10T04:53:22;12.40;59.00
36280;DHT22;22317;47.936;12.742;2023-05-10T04:55:48;12.40;59.00
36280;DHT22;22317;47.936;12.742;2023-05-10T04:58:14;12.30;59.00
36280;DHT22;22317;47.936;12.742;2023-05-10T05:00:40;12.20;59.10
36280;DHT22;22317;47.936;12.742;2023-05-10T05:03:07;12.20;59.40
36280;DHT22;22317;47.936;12.742;2023-05-10T05:05:32;12.10;59.50
36280;DHT22;22317;47.936;12.742;2023-05-10T05:07:58;12.00;59.60
36280;DHT22;22317;47.936;12.742;2023-05-10T05:10:24;12.00;59.90
36280;DHT22;22317;47.936;12.742;2023-05-10T05:12:50;12.00;60.20
36280;DHT22;22317;47.936;12.742;2023-05-10T05:15:15;12.00;60.30
36280;DHT22;22317;47.936;12.742;2023-05-10T05:17:42;12.00;60.30
36280;DHT22;22317;47.936;12.742;2023-05-10T05:20:09;11.90;60.20
36280;DHT22;22317;47.936;12.742;2023-05-10T05:22:36;11.90;60.50
36280;DHT22;22317;47.936;12.742;2023-05-10T05:25:02;11.90;60.80
36280;DHT22;22317;47.936;12.742;2023-05-10T05:27:29;11.90;60.80
36280;DHT22;22317;47.936;12.742;2023-05-10T05:29:56;11.90;61.00
36280;DHT22;22317;47.936;12.742;2023-05-10T05:32:22;11.90;61.00
36280;DHT22;22317;47.936;12.742;2023-05-10T05:34:48;11.90;61.10
36280;DHT22;22317;47.936;12.742;2023-05-10T05:37:15;11.90;61.10
36280;DHT22;22317;47.936;12.742;2023-05-10T05:39:41;11.90;61.10
36280;DHT22;22317;47.936;12.742;2023-05-10T05:42:10;11.90;61.30
36280;DHT22;22317;47.936;12.742;2023-05-10T05:44:36;11.90;61.40
36280;DHT22;22317;47.936;12.742;2023-05-10T05:47:02;11.90;61.30
36280;DHT22;22317;47.936;12.742;2023-05-10T05:49:27;11.90;62.10
36280;DHT22;22317;47.936;12.742;2023-05-10T05:51:53;11.90;61.30
36280;DHT22;22317;47.936;12.742;2023-05-10T05:54:19;11.90;61.50
36280;DHT22;22317;47.936;12.742;2023-05-10T05:56:45;11.90;61.60
36280;DHT22;22317;47.936;12.742;2023-05-10T05:59:11;12.00;61.90
36280;DHT22;22317;47.936;12.742;2023-05-10T06:01:37;12.10;62.00
36280;DHT22;22317;47.936;12.742;2023-05-10T06:04:02;12.10;61.70
36280;DHT22;22317;47.936;12.742;2023-05-10T06:06:28;12.10;61.60
36280;DHT22;22317;47.936;12.742;2023-05-10T06:08:55;12.10;61.70
36280;DHT22;22317;47.936;12.742;2023-05-10T06:11:20;12.10;61.60
36280;DHT22;22317;47.936;12.742;2023-05-10T06:13:47;12.10;61.50
36280;DHT22;22317;47.936;12.742;2023-05-10T06:16:13;12.10;61.70
36280;DHT22;22317;47.936;12.742;2023-05-10T06:18:39;12.10;61.70
36280;DHT22;22317;47.936;12.742;2023-05-10T06:21:05;12.20;61.70
36280;DHT22;22317;47.936;12.742;2023-05-10T06:23:30;12.20;61.70
36280;DHT22;22317;47.936;12.742;2023-05-10T06:25:56;12.20;61.60
36280;DHT22;22317;47.936;12.742;2023-05-10T06:28:22;12.20;61.50
36280;DHT22;22317;47.936;12.742;2023-05-10T06:30:48;12.20;61.50
36280;DHT22;22317;47.936;12.742;2023-05-10T06:33:13;12.20;61.70
36280;DHT22;22317;47.936;12.742;2023-05-10T06:35:39;12.10;61.40
36280;DHT22;22317;47.936;12.742;2023-05-10T06:38:05;12.20;61.50
36280;DHT22;22317;47.936;12.742;2023-05-10T06:40:31;12.20;61.30
36280;DHT22;22317;47.936;12.742;2023-05-10T06:42:58;12.20;61.20
36280;DHT22;22317;47.936;12.742;2023-05-10T06:45:24;12.20;61.40
36280;DHT22;22317;47.936;12.742;2023-05-10T06:47:49;12.20;61.50
36280;DHT22;22317;47.936;12.742;2023-05-10T06:50:15;12.20;61.30
36280;DHT22;22317;47.936;12.742;2023-05-10T06:52:41;12.20;61.30
36280;DHT22;22317;47.936;12.742;2023-05-10T06:55:07;12.20;61.50
36280;DHT22;22317;47.936;12.742;2023-05-10T06:57:33;12.20;61.60
36280;DHT22;22317;47.936;12.742;2023-05-10T06:59:59;12.20;61.50
36280;DHT22;22317;47.936;12.742;2023-05-10T07:02:25;12.20;61.50
36280;DHT22;22317;47.936;12.742;2023-05-10T07:04:51;12.10;61.60
36280;DHT22;22317;47.936;12.742;2023-05-10T07:07:18;12.10;61.60
36280;DHT22;22317;47.936;12.742;2023-05-10T07:09:44;12.10;61.70
36280;DHT22;22317;47.936;12.742;2023-05-10T07:12:10;12.10;62.00
36280;DHT22;22317;47.936;12.742;2023-05-10T07:14:36;12.20;61.90
36280;DHT22;22317;47.936;12.742;2023-05-10T07:17:01;12.20;61.50
36280;DHT22;22317;47.936;12.742;2023-05-10T07:19:27;12.20;61.70
36280;DHT22;22317;47.936;12.742;2023-05-10T07:21:55;12.10;61.50
36280;DHT22;22317;47.936;12.742;2023-05-10T07:24:20;12.10;61.30
36280;DHT22;22317;47.936;12.742;2023-05-10T07:26:46;12.00;61.40
36280;DHT22;22317;47.936;12.742;2023-05-10T07:29:12;12.00;61.60
36280;DHT22;22317;47.936;12.742;2023-05-10T07:31:38;11.90;61.70
36280;DHT22;22317;47.936;12.742;2023-05-10T07:34:03;11.90;61.90
36280;DHT22;22317;47.936;12.742;2023-05-10T07:36:29;11.90;62.10
36280;DHT22;22317;47.936;12.742;2023-05-10T07:38:56;11.90;62.10
36280;DHT22;22317;47.936;12.742;2023-05-10T07:41:23;11.90;62.10
36280;DHT22;22317;47.936;12.742;2023-05-10T07:43:48;11.80;62.20
36280;DHT22;22317;47.936;12.742;2023-05-10T07:46:14;11.80;62.20
36280;DHT22;22317;47.936;12.742;2023-05-10T07:48:40;11.80;62.30
36280;DHT22;22317;47.936;12.742;2023-05-10T07:51:06;11.80;62.30
36280;DHT22;22317;47.936;12.742;2023-05-10T07:53:32;11.80;62.30
36280;DHT22;22317;47.936;12.742;2023-05-10T07:55:58;11.80;62.30
36280;DHT22;22317;47.936;12.742;2023-05-10T07:58:24;11.70;62.20
36280;DHT22;22317;47.936;12.742;2023-05-10T08:00:50;11.70;62.30
36280;DHT22;22317;47.936;12.742;2023-05-10T08:03:16;11.70;62.40
36280;DHT22;22317;47.936;12.742;2023-05-10T08:05:42;11.60;62.50
36280;DHT22;22317;47.936;12.742;2023-05-10T08:08:08;11.60;62.40
36280;DHT22;22317;47.936;12.742;2023-05-10T08:10:33;11.70;62.60
36280;DHT22;22317;47.936;12.742;2023-05-10T08:12:59;11.70;62.80
36280;DHT22;22317;47.936;12.742;2023-05-10T08:15:25;11.70;62.70
36280;DHT22;22317;47.936;12.742;2023-05-10T08:17:53;11.70;62.60
36280;DHT22;22317;47.936;12.742;2023-05-10T08:20:20;11.70;62.80
36280;DHT22;22317;47.936;12.742;2023-05-10T08:22:46;11.70;62.60
36280;DHT22;22317;47.936;12.742;2023-05-10T08:25:11;11.70;62.40
36280;DHT22;22317;47.936;12.742;2023-05-10T08:27:37;11.70;62.50
36280;DHT22;22317;47.936;12.742;2023-05-10T08:30:03;11.70;62.50
36280;DHT22;22317;47.936;12.742;2023-05-10T08:32:29;11.70;62.60
36280;DHT22;22317;47.936;12.742;2023-05-10T08:34:55;11.70;62.70
36280;DHT22;22317;47.936;12.742;2023-05-10T08:37:23;11.70;62.80
36280;DHT22;22317;47.936;12.742;2023-05-10T08:39:49;11.80;62.70
36280;DHT22;22317;47.936;12.742;2023-05-10T08:42:19;11.80;62.70
36280;DHT22;22317;47.936;12.742;2023-05-10T08:44:48;11.90;63.00
36280;DHT22;22317;47.936;12.742;2023-05-10T08:47:16;12.00;62.90
36280;DHT22;22317;47.936;12.742;2023-05-10T08:49:44;12.00;62.60
36280;DHT22;22317;47.936;12.742;2023-05-10T08:52:15;12.10;62.60
36280;DHT22;22317;47.936;12.742;2023-05-10T08:54:42;12.10;62.60
36280;DHT22;22317;47.936;12.742;2023-05-10T08:57:08;12.20;62.60
36280;DHT22;22317;47.936;12.742;2023-05-10T08:59:34;12.20;62.30
36280;DHT22;22317;47.936;12.742;2023-05-10T09:02:00;12.30;62.30
36280;DHT22;22317;47.936;12.742;2023-05-10T09:04:27;12.30;62.30
36280;DHT22;22317;47.936;12.742;2023-05-10T09:06:53;12.40;62.50
36280;DHT22;22317;47.936;12.742;2023-05-10T09:09:20;12.60;62.50
36280;DHT22;22317;47.936;12.742;2023-05-10T09:11:47;12.60;62.20
36280;DHT22;22317;47.936;12.742;2023-05-10T09:14:13;12.70;62.10
36280;DHT22;22317;47.936;12.742;2023-05-10T09:16:40;12.80;62.00
36280;DHT22;22317;47.936;12.742;2023-05-10T09:19:06;12.90;61.90
36280;DHT22;22317;47.936;12.742;2023-05-10T09:21:35;13.00;62.00
36280;DHT22;22317;47.936;12.742;2023-05-10T09:24:05;13.10;61.60
36280;DHT22;22317;47.936;12.742;2023-05-10T09:26:31;13.10;61.30
36280;DHT22;22317;47.936;12.742;2023-05-10T09:28:58;13.10;60.90
36280;DHT22;22317;47.936;12.742;2023-05-10T09:31:25;13.10;61.20
36280;DHT22;22317;47.936;12.742;2023-05-10T09:34:08;13.20;61.20
36280;DHT22;22317;47.936;12.742;2023-05-10T09:36:33;13.30;60.90
36280;DHT22;22317;47.936;12.742;2023-05-10T09:38:59;13.30;61.40
36280;DHT22;22317;47.936;12.742;2023-05-10T09:41:25;13.40;60.70
36280;DHT22;22317;47.936;12.742;2023-05-10T09:43:56;13.40;60.60
36280;DHT22;22317;47.936;12.742;2023-05-10T09:46:22;13.50;60.60
36280;DHT22;22317;47.936;12.742;2023-05-10T09:48:48;13.50;60.30
36280;DHT22;22317;47.936;12.742;2023-05-10T09:51:21;13.50;60.00
36280;DHT22;22317;47.936;12.742;2023-05-10T09:53:47;13.50;60.10
36280;DHT22;22317;47.936;12.742;2023-05-10T09:56:13;13.50;60.00
36280;DHT22;22317;47.936;12.742;2023-05-10T09:58:39;13.50;60.00
36280;DHT22;22317;47.936;12.742;2023-05-10T10:01:11;13.50;59.80
36280;DHT22;22317;47.936;12.742;2023-05-10T10:03:42;13.50;59.80
36280;DHT22;22317;47.936;12.742;2023-05-10T10:06:08;13.50;59.90
36280;DHT22;22317;47.936;12.742;2023-05-10T10:08:34;13.50;59.70
36280;DHT22;22317;47.936;12.742;2023-05-10T10:11:00;13.60;59.70
36280;DHT22;22317;47.936;12.742;2023-05-10T10:13:26;13.60;59.70
36280;DHT22;22317;47.936;12.742;2023-05-10T10:15:54;13.70;59.50
36280;DHT22;22317;47.936;12.742;2023-05-10T10:18:20;13.70;59.20
36280;DHT22;22317;47.936;12.742;2023-05-10T10:20:54;13.70;59.10
36280;DHT22;22317;47.936;12.742;2023-05-10T10:23:20;13.70;58.90
36280;DHT22;22317;47.936;12.742;2023-05-10T10:25:46;13.70;58.90
36280;DHT22;22317;47.936;12.742;2023-05-10T10:28:36;13.80;59.00
36280;DHT22;22317;47.936;12.742;2023-05-10T10:32:01;13.80;58.60
36280;DHT22;22317;47.936;12.742;2023-05-10T10:34:10;13.80;58.40
36280;DHT22;22317;47.936;12.742;2023-05-10T10:36:46;13.80;58.50
36280;DHT22;22317;47.936;12.742;2023-05-10T10:39:13;13.80;58.70
36280;DHT22;22317;47.936;12.742;2023-05-10T10:41:48;13.90;58.60
36280;DHT22;22317;47.936;12.742;2023-05-10T10:49:37;13.90;58.30
36280;DHT22;22317;47.936;12.742;2023-05-10T10:52:23;13.90;58.10
36280;DHT22;22317;47.936;12.742;2023-05-10T10:57:51;14.00;58.40
36280;DHT22;22317;47.936;12.742;2023-05-10T11:03:04;14.20;58.50
36280;DHT22;22317;47.936;12.742;2023-05-10T11:05:46;14.30;58.50
36280;DHT22;22317;47.936;12.742;2023-05-10T11:10:39;14.50;57.90
36280;DHT22;22317;47.936;12.742;2023-05-10T11:13:06;14.50;57.50
36280;DHT22;22317;47.936;12.742;2023-05-10T11:15:37;14.50;57.00
36280;DHT22;22317;47.936;12.742;2023-05-10T11:18:28;14.50;56.80
36280;DHT22;22317;47.936;12.742;2023-05-10T11:21:00;14.50;56.80
36280;DHT22;22317;47.936;12.742;2023-05-10T11:23:32;14.50;56.90
36280;DHT22;22317;47.936;12.742;2023-05-10T11:26:00;14.50;56.70
36280;DHT22;22317;47.936;12.742;2023-05-10T11:28:27;14.50;56.60
36280;DHT22;22317;47.936;12.742;2023-05-10T11:30:54;14.50;56.60
36280;DHT22;22317;47.936;12.742;2023-05-10T11:33:20;14.50;56.90
36280;DHT22;22317;47.936;12.742;2023-05-10T11:35:46;14.50;56.90
36280;DHT22;22317;47.936;12.742;2023-05-10T11:38:13;14.50;56.40
36280;DHT22;22317;47.936;12.742;2023-05-10T11:40:40;14.50;56.20
36280;DHT22;22317;47.936;12.742;2023-05-10T11:43:06;14.50;56.20
36280;DHT22;22317;47.936;12.742;2023-05-10T11:45:34;14.40;57.00
36280;DHT22;22317;47.936;12.742;2023-05-10T11:48:00;14.50;56.50
36280;DHT22;22317;47.936;12.742;2023-05-10T11:50:26;14.50;56.60
36280;DHT22;22317;47.936;12.742;2023-05-10T11:52:53;14.60;56.40
36280;DHT22;22317;47.936;12.742;2023-05-10T11:55:19;14.70;56.20
36280;DHT22;22317;47.936;12.742;2023-05-10T11:57:45;14.80;56.10
36280;DHT22;22317;47.936;12.742;2023-05-10T12:00:15;14.80;55.90
36280;DHT22;22317;47.936;12.742;2023-05-10T12:02:41;14.90;55.70
36280;DHT22;22317;47.936;12.742;2023-05-10T12:05:08;15.00;55.70
36280;DHT22;22317;47.936;12.742;2023-05-10T12:07:34;15.00;55.60
36280;DHT22;22317;47.936;12.742;2023-05-10T12:10:11;15.10;55.50
36280;DHT22;22317;47.936;12.742;2023-05-10T12:12:41;15.20;56.00
36280;DHT22;22317;47.936;12.742;2023-05-10T12:15:12;15.30;55.00
36280;DHT22;22317;47.936;12.742;2023-05-10T12:17:44;15.40;54.30
36280;DHT22;22317;47.936;12.742;2023-05-10T12:20:18;15.40;54.00
36280;DHT22;22317;47.936;12.742;2023-05-10T12:22:52;15.40;53.90
36280;DHT22;22317;47.936;12.742;2023-05-10T12:25:19;15.40;53.90
36280;DHT22;22317;47.936;12.742;2023-05-10T12:27:53;15.50;53.70
36280;DHT22;22317;47.936;12.742;2023-05-10T12:30:24;15.50;53.60
36280;DHT22;22317;47.936;12.742;2023-05-10T12:32:50;15.60;53.40
36280;DHT22;22317;47.936;12.742;2023-05-10T12:35:16;15.60;53.30
36280;DHT22;22317;47.936;12.742;2023-05-10T12:37:45;15.60;54.00
36280;DHT22;22317;47.936;12.742;2023-05-10T12:40:11;15.70;53.50
36280;DHT22;22317;47.936;12.742;2023-05-10T12:42:38;15.70;53.50
36280;DHT22;22317;47.936;12.742;2023-05-10T12:45:06;15.60;53.30
36280;DHT22;22317;47.936;12.742;2023-05-10T12:47:32;15.50;53.50
36280;DHT22;22317;47.936;12.742;2023-05-10T12:50:00;15.40;53.50
36280;DHT22;22317;47.936;12.742;2023-05-10T12:52:26;15.30;53.80
36280;DHT22;22317;47.936;12.742;2023-05-10T12:54:52;15.20;53.90
36280;DHT22;22317;47.936;12.742;2023-05-10T12:57:20;15.20;54.00
36280;DHT22;22317;47.936;12.742;2023-05-10T12:59:46;15.10;54.00
36280;DHT22;22317;47.936;12.742;2023-05-10T13:02:11;15.00;54.20
36280;DHT22;22317;47.936;12.742;2023-05-10T13:04:37;15.00;54.50
36280;DHT22;22317;47.936;12.742;2023-05-10T13:07:08;15.00;54.50
36280;DHT22;22317;47.936;12.742;2023-05-10T13:09:34;14.90;54.40
36280;DHT22;22317;47.936;12.742;2023-05-10T13:12:00;14.90;54.50
36280;DHT22;22317;47.936;12.742;2023-05-10T13:14:26;14.80;54.50
36280;DHT22;22317;47.936;12.742;2023-05-10T13:16:52;14.70;54.50
36280;DHT22;22317;47.936;12.742;2023-05-10T13:19:18;14.60;54.40
36280;DHT22;22317;47.936;12.742;2023-05-10T13:21:43;14.50;54.20
36280;DHT22;22317;47.936;12.742;2023-05-10T13:24:12;14.30;54.30
36280;DHT22;22317;47.936;12.742;2023-05-10T13:26:42;14.20;54.50
36280;DHT22;22317;47.936;12.742;2023-05-10T13:29:08;14.00;54.80
36280;DHT22;22317;47.936;12.742;2023-05-10T13:31:34;13.90;55.10
36280;DHT22;22317;47.936;12.742;2023-05-10T13:34:01;13.80;55.10
36280;DHT22;22317;47.936;12.742;2023-05-10T13:36:28;13.60;54.80
36280;DHT22;22317;47.936;12.742;2023-05-10T13:38:55;13.50;54.80
36280;DHT22;22317;47.936;12.742;2023-05-10T13:41:20;13.40;55.10
36280;DHT22;22317;47.936;12.742;2023-05-10T13:43:46;13.30;55.10
36280;DHT22;22317;47.936;12.742;2023-05-10T13:46:14;13.20;55.20
36280;DHT22;22317;47.936;12.742;2023-05-10T13:48:39;13.10;55.40
36280;DHT22;22317;47.936;12.742;2023-05-10T13:51:05;13.00;55.80
36280;DHT22;22317;47.936;12.742;2023-05-10T13:53:31;12.90;56.10
36280;DHT22;22317;47.936;12.742;2023-05-10T13:55:56;12.90;56.70
36280;DHT22;22317;47.936;12.742;2023-05-10T13:58:22;12.90;57.10
36280;DHT22;22317;47.936;12.742;2023-05-10T14:00:49;12.90;57.50
36280;DHT22;22317;47.936;12.742;2023-05-10T14:03:14;13.00;57.80
36280;DHT22;22317;47.936;12.742;2023-05-10T14:05:40;13.10;57.80
36280;DHT22;22317;47.936;12.742;2023-05-10T14:08:06;13.10;57.80
36280;DHT22;22317;47.936;12.742;2023-05-10T14:10:34;13.10;57.90
36280;DHT22;22317;47.936;12.742;2023-05-10T14:13:00;13.10;57.90
36280;DHT22;22317;47.936;12.742;2023-05-10T14:15:26;13.10;57.90
36280;DHT22;22317;47.936;12.742;2023-05-10T14:17:52;13.10;58.10
36280;DHT22;22317;47.936;12.742;2023-05-10T14:20:18;13.10;58.70
36280;DHT22;22317;47.936;12.742;2023-05-10T14:22:43;13.10;58.30
36280;DHT22;22317;47.936;12.742;2023-05-10T14:25:09;13.10;58.40
36280;DHT22;22317;47.936;12.742;2023-05-10T14:27:35;13.10;58.60
36280;DHT22;22317;47.936;12.742;2023-05-10T14:30:01;13.10;58.70
36280;DHT22;22317;47.936;12.742;2023-05-10T14:32:26;13.10;58.70
36280;DHT22;22317;47.936;12.742;2023-05-10T14:34:53;13.10;58.70
36280;DHT22;22317;47.936;12.742;2023-05-10T14:37:18;13.10;58.50
36280;DHT22;22317;47.936;12.742;2023-05-10T14:39:44;13.00;58.60
36280;DHT22;22317;47.936;12.742;2023-05-10T14:42:11;12.90;58.70
36280;DHT22;22317;47.936;12.742;2023-05-10T14:44:37;12.90;58.90
36280;DHT22;22317;47.936;12.742;2023-05-10T14:47:02;12.80;58.90
36280;DHT22;22317;47.936;12.742;2023-05-10T14:49:28;12.70;58.80
36280;DHT22;22317;47.936;12.742;2023-05-10T14:51:54;12.60;58.80
36280;DHT22;22317;47.936;12.742;2023-05-10T14:54:20;12.50;58.90
36280;DHT22;22317;47.936;12.742;2023-05-10T14:56:46;12.40;59.10
36280;DHT22;22317;47.936;12.742;2023-05-10T14:59:12;12.40;59.00
36280;DHT22;22317;47.936;12.742;2023-05-10T15:01:37;12.30;59.20
36280;DHT22;22317;47.936;12.742;2023-05-10T15:04:04;12.30;59.40
36280;DHT22;22317;47.936;12.742;2023-05-10T15:06:34;12.20;59.50
36280;DHT22;22317;47.936;12.742;2023-05-10T15:09:01;12.20;59.80
36280;DHT22;22317;47.936;12.742;2023-05-10T15:11:27;12.20;59.90
36280;DHT22;22317;47.936;12.742;2023-05-10T15:13:53;12.30;59.90
36280;DHT22;22317;47.936;12.742;2023-05-10T15:16:19;12.20;59.80
36280;DHT22;22317;47.936;12.742;2023-05-10T15:18:45;12.20;60.00
36280;DHT22;22317;47.936;12.742;2023-05-10T15:21:11;12.20;60.20
36280;DHT22;22317;47.936;12.742;2023-05-10T15:23:37;12.20;60.10
36280;DHT22;22317;47.936;12.742;2023-05-10T15:26:03;12.20;60.20
36280;DHT22;22317;47.936;12.742;2023-05-10T15:28:29;12.20;60.20
36280;DHT22;22317;47.936;12.742;2023-05-10T15:30:55;12.20;60.30
36280;DHT22;22317;47.936;12.742;2023-05-10T15:33:22;12.20;60.40
36280;DHT22;22317;47.936;12.742;2023-05-10T15:35:48;12.10;60.40
36280;DHT22;22317;47.936;12.742;2023-05-10T15:38:14;12.10;60.30
36280;DHT22;22317;47.936;12.742;2023-05-10T15:40:40;11.30;59.90
36280;DHT22;22317;47.936;12.742;2023-05-10T15:43:06;12.10;60.30
36280;DHT22;22317;47.936;12.742;2023-05-10T15:45:31;12.10;60.30
36280;DHT22;22317;47.936;12.742;2023-05-10T15:47:58;12.00;60.50